Naval Air Station/ Jrb, Texas
Current Conditions -  °F | °C
As of 2:52 AM on Sunday 21 Dec 2014 (Local Time) from KNFW Reporting Station
Overcast Overcast  
Wind Chill: 51°   Ceiling: 2600
Heat Index: 51°   Visibility: 10mi
Dew Point: 43°   Wind: 7mph
Humidity: 74%   Direction: 130°SE
Pressure: 30.17"   Gusts: NA
Location:  32.7772°N, 97.4184°W
Report Text: KNFW 210852Z AUTO 13006KT 10SM FEW009 OVC026 11/06 A3017 RMK AO2 SLP199 T01060061 57006
Loading
Personal Weather Stations






























Interactive Weather Map New forecast layout! Learn more

10-Day Weather Forecast

Advertisements
Track Severe Weather on mobile